Terminal Aerodrome Forecast
Issued by NWS

Home | Current Version | Previous Version | Text Only | Print | Product List | Glossary On
Versions: 1 2 3 4 5 6 7 8 9 10 11 12
741
FTUS44 KLIX 161740
TAFGPT
TAF
KGPT 161740Z 1618/1718 08006KT P6SM SCT035 BKN100
     FM162100 11008KT P6SM BKN035 BKN200
     FM170700 10009KT P6SM BKN015 BKN080
     FM170900 11009KT P6SM VCSH BKN008 OVC080
     FM171300 14010KT P6SM VCSH BKN015 OVC030
     FM171500 14011KT 4SM -SHRA BR BKN015 OVC020=

USA.gov is the U.S. government's official web portal to all federal, state and local government web resources and services.